Delta Virtual Airport Information Service

Doha Hamad International Airport

ICAO: OTHH Country: Qatar
Latitude: 25.2731 Longitude: 51.6081
Latest Arrival : QTR5249972 (OIIE-OTHH) Latest Departure : QTR703 (OTHH-KJFK)


WX CaptureLIVE
Data provided by noaa.gov | Fetched at 03:59:56

METAR : OTHH 030900Z AUTO 32011KT CAVOK 27/14 Q1017 NOSIG

TAF : OTHH 030516Z 0306/0412 27008KT 9000 NSC BECMG 0307/0309 33015KT TEMPO 0309/0318 33017G27KT PROB30 TEMPO 0310/0316 5000 BLDU


Runway Data for OTHH
Data provided by openaviationdata.com

Runway ID Mag Var Hdg Length Elevation Surface ILS Freq ILS Id ILS Slope
16L 2.24 156° 15912 ft 13 ft Asphalt 108.7 IDE 3
34R 2.24 336° 15912 ft 13 ft Asphalt 110.1 AZM 3
16R 2.24 156° 13944 ft 13 ft Asphalt 108.1 QAT 3
34L 2.24 336° 13944 ft 13 ft Asphalt 111.9 HJJ 3

Doha Hamad International Airport, Qatar
Use only for reference purposes



Not for navigational purposes.